Griffith, Australia
Current Conditions -  °F | °C
As of 11:00 PM on Tuesday 21 Oct 2014 (Local Time) from YGTH Reporting Station
Clear Clear  
Wind Chill: 70°   Ceiling: Unl
Heat Index: 70°   Visibility: 6mi
Dew Point: 52°   Wind: 15mph
Humidity: 53%   Direction: 90°E
Pressure: 30.18"   Gusts: NA
Location:  34.32°S, 146.07°E
Report Text: YGTH 211200Z AUTO 09013KT 9999 // NCD 21/11 Q1022
Loading
Personal Weather Stations






























Interactive Weather Map
Tropical Storm Tracking
New forecast layout! Learn more

10-Day Weather Forecast

Advertisements
Track Severe Weather on mobile